createdAt,value
2023-01-29T00:01:19.689Z,17.23
2023-01-29T00:03:46.209Z,16.10
2023-01-29T00:06:12.832Z,16.85
2023-01-29T00:08:39.451Z,16.85
2023-01-29T00:11:08.280Z,16.83
2023-01-29T00:13:34.873Z,18.38
2023-01-29T00:16:01.679Z,16.95
2023-01-29T00:18:29.066Z,18.67
2023-01-29T00:20:55.848Z,18.15
2023-01-29T00:23:22.922Z,16.83
2023-01-29T00:25:49.434Z,17.48
2023-01-29T00:28:15.932Z,18.08
2023-01-29T00:30:43.374Z,17.92
2023-01-29T00:33:09.829Z,15.48
2023-01-29T00:35:39.960Z,16.92
2023-01-29T00:38:06.566Z,16.52
2023-01-29T00:40:33.045Z,17.35
2023-01-29T00:42:59.530Z,17.35
2023-01-29T00:45:25.950Z,16.50
2023-01-29T00:47:52.456Z,18.50
2023-01-29T00:50:19.359Z,17.35
2023-01-29T00:52:46.101Z,17.83
2023-01-29T00:55:12.571Z,18.52
2023-01-29T00:57:39.165Z,18.23
2023-01-29T01:00:09.005Z,17.80
2023-01-29T01:02:35.509Z,17.85
2023-01-29T01:05:04.539Z,19.25
2023-01-29T01:07:31.014Z,17.42
2023-01-29T01:09:57.678Z,17.15
2023-01-29T01:12:24.146Z,17.48
2023-01-29T01:14:50.616Z,17.30
2023-01-29T01:17:17.361Z,18.60
2023-01-29T01:19:43.920Z,16.33
2023-01-29T01:22:10.724Z,17.63
2023-01-29T01:24:37.998Z,17.83
2023-01-29T01:27:04.675Z,18.25
2023-01-29T01:29:31.481Z,18.27
2023-01-29T01:31:58.198Z,17.73
2023-01-29T01:34:24.996Z,17.88
2023-01-29T01:36:51.461Z,16.80
2023-01-29T01:39:17.909Z,19.60
2023-01-29T01:41:44.875Z,18.25
2023-01-29T01:44:49.079Z,19.20
2023-01-29T01:47:16.859Z,17.33
2023-01-29T01:49:44.929Z,18.60
2023-01-29T01:52:13.501Z,19.33
2023-01-29T01:54:40.149Z,19.42
2023-01-29T01:57:12.009Z,18.83
2023-01-29T01:59:40.396Z,18.67
2023-01-29T02:02:07.608Z,18.38
2023-01-29T02:04:34.131Z,18.45
2023-01-29T02:07:04.823Z,19.52
2023-01-29T02:09:49.913Z,19.60
2023-01-29T02:12:17.405Z,18.55
2023-01-29T02:14:44.767Z,18.13
2023-01-29T02:17:15.374Z,19.95
2023-01-29T02:20:05.153Z,20.02
2023-01-29T02:22:54.675Z,19.33
2023-01-29T02:28:19.263Z,18.45
2023-01-29T02:31:04.497Z,19.80
2023-01-29T02:33:42.021Z,19.98
2023-01-29T02:36:20.018Z,20.27
2023-01-29T02:39:12.308Z,19.20
2023-01-29T02:41:45.766Z,18.48
2023-01-29T02:44:30.253Z,20.38
2023-01-29T02:47:21.752Z,18.75
2023-01-29T02:49:59.670Z,19.50
2023-01-29T02:52:59.552Z,19.50
2023-01-29T02:55:43.839Z,19.85
2023-01-29T02:58:38.335Z,19.90
2023-01-29T03:01:12.383Z,19.38
2023-01-29T03:03:43.942Z,19.25
2023-01-29T03:06:23.095Z,20.70
2023-01-29T03:09:01.076Z,19.83
2023-01-29T03:11:34.757Z,19.52
2023-01-29T03:14:20.438Z,18.92
2023-01-29T03:16:53.636Z,19.02
2023-01-29T03:19:35.352Z,19.70
2023-01-29T03:22:07.457Z,19.13
2023-01-29T03:24:55.826Z,19.48
2023-01-29T03:27:30.438Z,18.73
2023-01-29T03:29:59.157Z,18.25
2023-01-29T03:32:35.590Z,19.45
2023-01-29T03:35:05.083Z,19.20
2023-01-29T03:37:41.761Z,19.58
2023-01-29T03:40:09.694Z,18.88
2023-01-29T03:42:57.940Z,18.60
2023-01-29T03:45:39.491Z,16.83
2023-01-29T03:51:01.809Z,17.02
2023-01-29T03:53:47.358Z,18.38
2023-01-29T03:56:33.874Z,17.83
2023-01-29T03:59:40.946Z,18.75
2023-01-29T04:02:35.725Z,19.20
2023-01-29T04:05:15.857Z,18.88
2023-01-29T04:07:59.778Z,18.70
2023-01-29T04:10:29.358Z,18.15
2023-01-29T04:13:07.545Z,17.60
2023-01-29T04:15:40.890Z,17.80
2023-01-29T04:18:07.738Z,17.48
2023-01-29T04:20:47.188Z,17.63
2023-01-29T04:23:22.814Z,17.40
2023-01-29T04:26:25.902Z,17.80
2023-01-29T04:29:24.129Z,17.55
2023-01-29T04:32:00.039Z,17.03
2023-01-29T04:34:45.965Z,17.25
2023-01-29T04:37:39.693Z,16.05
2023-01-29T04:40:44.524Z,16.02
2023-01-29T04:43:21.641Z,16.13
2023-01-29T04:46:10.192Z,17.38
2023-01-29T04:48:53.358Z,14.98
2023-01-29T04:51:32.367Z,15.57
2023-01-29T04:54:26.542Z,15.18
2023-01-29T04:57:05.044Z,13.70
2023-01-29T04:59:41.885Z,14.27
2023-01-29T05:02:11.688Z,13.32
2023-01-29T05:04:41.315Z,13.77
2023-01-29T05:07:12.973Z,12.80
2023-01-29T05:12:09.791Z,12.02
2023-01-29T05:14:39.481Z,12.27
2023-01-29T05:17:13.758Z,12.23
2023-01-29T05:19:40.295Z,12.10
2023-01-29T05:22:10.317Z,11.73
2023-01-29T05:24:38.210Z,11.23
2023-01-29T05:27:05.171Z,11.48
2023-01-29T05:29:31.698Z,9.75
2023-01-29T05:31:58.144Z,10.23
2023-01-29T05:34:24.804Z,10.68
2023-01-29T05:36:51.365Z,8.88
2023-01-29T05:39:17.857Z,9.93
2023-01-29T05:41:44.312Z,10.07
2023-01-29T05:44:11.086Z,9.48
2023-01-29T05:46:38.416Z,10.38
2023-01-29T05:49:05.620Z,10.10
2023-01-29T05:51:32.242Z,9.20
2023-01-29T05:53:58.704Z,9.18
2023-01-29T05:56:25.174Z,9.90
2023-01-29T05:58:51.668Z,11.05
2023-01-29T06:01:21.118Z,10.70
2023-01-29T06:03:48.035Z,9.82
2023-01-29T06:06:15.061Z,10.80
2023-01-29T06:08:41.640Z,10.82
2023-01-29T06:11:10.526Z,11.40
2023-01-29T06:13:37.427Z,11.43
2023-01-29T06:16:08.833Z,11.40
2023-01-29T06:18:38.732Z,12.15
2023-01-29T06:21:06.995Z,11.95
2023-01-29T06:23:33.888Z,11.10
2023-01-29T06:26:06.131Z,11.60
2023-01-29T06:28:32.714Z,11.82
2023-01-29T06:31:20.957Z,12.07
2023-01-29T06:33:47.852Z,12.40
2023-01-29T06:36:14.329Z,11.77
2023-01-29T06:38:40.851Z,11.95
2023-01-29T06:41:17.842Z,12.55
2023-01-29T06:43:45.415Z,12.55
2023-01-29T06:46:11.928Z,11.77
2023-01-29T06:48:38.420Z,11.75
2023-01-29T06:51:07.362Z,14.60
2023-01-29T06:53:37.271Z,12.65
2023-01-29T06:56:04.719Z,11.85
2023-01-29T06:58:31.266Z,11.30
2023-01-29T07:01:08.606Z,12.20
2023-01-29T07:03:35.135Z,11.60
2023-01-29T07:06:02.033Z,11.48
2023-01-29T07:08:28.562Z,13.05
2023-01-29T07:11:01.802Z,11.98
2023-01-29T07:13:28.637Z,12.55
2023-01-29T07:15:58.772Z,11.27
2023-01-29T07:18:25.253Z,11.55
2023-01-29T07:20:51.881Z,11.88
2023-01-29T07:23:18.360Z,11.23
2023-01-29T07:25:44.881Z,12.25
2023-01-29T07:28:11.394Z,11.52
2023-01-29T07:30:38.111Z,11.20
2023-01-29T07:33:07.618Z,11.18
2023-01-29T07:35:42.849Z,11.18
2023-01-29T07:38:11.329Z,11.43
2023-01-29T07:40:38.925Z,11.15
2023-01-29T07:43:07.198Z,10.88
2023-01-29T07:45:35.958Z,10.07
2023-01-29T07:48:03.214Z,10.40
2023-01-29T07:50:29.663Z,10.93
2023-01-29T07:52:56.204Z,11.43
2023-01-29T07:55:23.516Z,10.93
2023-01-29T07:58:03.091Z,11.23
2023-01-29T08:00:31.218Z,11.15
2023-01-29T08:03:05.590Z,10.40
2023-01-29T08:05:32.657Z,11.27
2023-01-29T08:08:06.646Z,10.43
2023-01-29T08:10:35.048Z,9.95
2023-01-29T08:13:02.522Z,10.18
2023-01-29T08:15:29.632Z,10.30
2023-01-29T08:17:58.246Z,11.90
2023-01-29T08:20:25.672Z,11.27
2023-01-29T08:23:06.417Z,10.73
2023-01-29T08:25:34.381Z,10.35
2023-01-29T08:28:01.332Z,11.45
2023-01-29T08:30:30.177Z,10.23
2023-01-29T08:32:56.689Z,10.48
2023-01-29T08:35:23.974Z,10.32
2023-01-29T08:38:09.402Z,10.07
2023-01-29T08:40:35.886Z,11.52
2023-01-29T08:43:06.292Z,10.43
2023-01-29T08:45:35.939Z,11.32
2023-01-29T08:48:02.493Z,10.10
2023-01-29T08:50:29.017Z,10.20
2023-01-29T08:52:59.400Z,10.73
2023-01-29T08:55:26.837Z,9.52
2023-01-29T08:57:53.398Z,10.50
2023-01-29T09:00:20.393Z,9.95
2023-01-29T09:02:46.905Z,11.10
2023-01-29T09:05:13.453Z,10.52
2023-01-29T09:07:39.928Z,10.02
2023-01-29T09:10:07.076Z,10.10
2023-01-29T09:12:33.722Z,10.10
2023-01-29T09:15:00.187Z,9.73
2023-01-29T09:17:26.659Z,9.63
2023-01-29T09:19:53.176Z,9.73
2023-01-29T09:22:20.256Z,8.90
2023-01-29T09:24:46.745Z,10.27
2023-01-29T09:27:13.278Z,8.57
2023-01-29T09:29:39.744Z,8.98
2023-01-29T09:32:07.067Z,9.02
2023-01-29T09:34:33.970Z,9.02
2023-01-29T09:37:00.508Z,8.93
2023-01-29T09:39:26.975Z,9.05
2023-01-29T09:42:03.148Z,8.63
2023-01-29T09:44:48.548Z,8.43
2023-01-29T09:47:17.631Z,9.85
2023-01-29T09:49:58.795Z,8.90
2023-01-29T09:52:36.699Z,7.03
2023-01-29T09:55:10.540Z,8.75
2023-01-29T09:57:53.325Z,8.63
2023-01-29T10:00:54.874Z,8.95
2023-01-29T10:03:45.685Z,8.55
2023-01-29T10:06:25.272Z,8.68
2023-01-29T10:09:22.674Z,8.80
2023-01-29T10:12:01.052Z,8.93
2023-01-29T10:14:27.519Z,8.55
2023-01-29T10:17:09.474Z,8.48
2023-01-29T10:20:03.167Z,9.32
2023-01-29T10:22:39.310Z,8.95
2023-01-29T10:25:10.703Z,9.75
2023-01-29T10:27:41.392Z,9.48
2023-01-29T10:30:20.836Z,9.63
2023-01-29T10:32:49.126Z,9.32
2023-01-29T10:35:33.657Z,11.63
2023-01-29T10:38:14.023Z,10.07
2023-01-29T10:40:49.096Z,9.93
2023-01-29T10:43:40.750Z,10.07
2023-01-29T10:46:22.446Z,9.82
2023-01-29T10:49:08.215Z,9.73
2023-01-29T10:51:56.555Z,9.15
2023-01-29T10:54:46.153Z,9.25
2023-01-29T10:57:46.549Z,8.88
2023-01-29T11:00:22.483Z,9.63
2023-01-29T11:02:50.894Z,9.70
2023-01-29T11:05:26.511Z,9.40
2023-01-29T11:08:03.627Z,9.60
2023-01-29T11:10:37.285Z,10.50
2023-01-29T11:13:05.255Z,9.73
2023-01-29T11:15:33.243Z,10.05
2023-01-29T11:18:04.022Z,10.48
2023-01-29T11:20:32.570Z,9.93
2023-01-29T11:22:59.117Z,9.73
2023-01-29T11:25:25.651Z,8.73
2023-01-29T11:27:57.569Z,8.80
2023-01-29T11:30:41.376Z,9.57
2023-01-29T11:33:23.951Z,9.70
2023-01-29T11:35:50.616Z,9.32
2023-01-29T11:38:19.019Z,8.70
2023-01-29T11:40:45.932Z,8.77
2023-01-29T11:43:41.815Z,9.15
2023-01-29T11:46:13.950Z,8.75
2023-01-29T11:48:49.262Z,8.77
2023-01-29T11:51:28.466Z,8.38
2023-01-29T11:53:58.492Z,9.68
2023-01-29T11:56:42.208Z,8.60
2023-01-29T11:59:39.947Z,8.43
2023-01-29T12:02:30.893Z,9.50
2023-01-29T12:05:04.430Z,7.88
2023-01-29T12:07:32.022Z,7.55
2023-01-29T12:09:59.402Z,7.60
2023-01-29T12:12:41.370Z,7.13
2023-01-29T12:15:18.601Z,7.63
2023-01-29T12:17:52.241Z,7.50
2023-01-29T12:20:26.075Z,6.97
2023-01-29T12:23:18.516Z,7.32
2023-01-29T12:26:04.613Z,6.88
2023-01-29T12:28:46.257Z,6.05
2023-01-29T12:31:29.630Z,7.03
2023-01-29T12:34:25.603Z,6.45
2023-01-29T12:37:04.621Z,6.53
2023-01-29T12:39:31.061Z,6.15
2023-01-29T12:42:05.014Z,6.18
2023-01-29T12:44:39.653Z,5.93
2023-01-29T12:47:11.168Z,6.20
2023-01-29T12:49:39.619Z,5.95
2023-01-29T12:52:15.550Z,5.75
2023-01-29T12:54:58.070Z,6.50
2023-01-29T12:57:48.570Z,5.90
2023-01-29T13:00:22.268Z,6.32
2023-01-29T13:03:01.593Z,6.40
2023-01-29T13:05:38.950Z,5.78
2023-01-29T13:08:40.815Z,6.18
2023-01-29T13:13:52.907Z,5.88
2023-01-29T13:16:25.736Z,6.43
2023-01-29T13:19:02.244Z,5.68
2023-01-29T13:21:37.137Z,6.25
2023-01-29T13:24:11.229Z,6.80
2023-01-29T13:26:39.290Z,5.95
2023-01-29T13:29:05.924Z,7.10
2023-01-29T13:31:35.297Z,5.78
2023-01-29T13:34:27.749Z,4.95
2023-01-29T13:37:01.173Z,4.10
2023-01-29T13:39:31.819Z,2.88
2023-01-29T13:42:00.908Z,2.83
2023-01-29T13:44:37.628Z,2.45
2023-01-29T13:47:10.248Z,2.30
2023-01-29T13:49:47.177Z,2.10
2023-01-29T13:52:22.279Z,2.45
2023-01-29T13:54:58.876Z,2.35
2023-01-29T13:57:48.113Z,2.40
2023-01-29T14:00:20.621Z,2.47
2023-01-29T14:03:07.907Z,2.22
2023-01-29T14:05:44.651Z,2.53
2023-01-29T14:08:14.150Z,2.47
2023-01-29T14:10:42.659Z,2.42
2023-01-29T14:13:18.235Z,2.33
2023-01-29T14:15:50.080Z,2.45
2023-01-29T14:18:22.020Z,2.58
2023-01-29T14:20:48.459Z,2.35
2023-01-29T14:23:24.128Z,2.53
2023-01-29T14:25:51.095Z,2.33
2023-01-29T14:28:23.724Z,2.53
2023-01-29T14:30:51.678Z,2.50
2023-01-29T14:33:35.129Z,2.35
2023-01-29T14:36:06.289Z,2.28
2023-01-29T14:38:33.709Z,2.90
2023-01-29T14:41:27.080Z,2.28
2023-01-29T14:44:32.031Z,1.77
2023-01-29T14:46:58.622Z,2.15
2023-01-29T14:49:53.071Z,2.20
2023-01-29T14:52:24.423Z,2.50
2023-01-29T14:54:53.573Z,2.35
2023-01-29T14:57:20.335Z,2.42
2023-01-29T14:59:53.041Z,2.25
2023-01-29T15:02:24.322Z,2.50
2023-01-29T15:04:55.152Z,2.13
2023-01-29T15:07:58.387Z,2.55
2023-01-29T15:10:39.568Z,2.15
2023-01-29T15:13:26.744Z,1.95
2023-01-29T15:15:59.885Z,2.72
2023-01-29T15:18:45.660Z,2.60
2023-01-29T15:21:17.338Z,2.88
2023-01-29T15:23:44.535Z,2.72
2023-01-29T15:26:18.067Z,2.45
2023-01-29T15:28:54.851Z,2.45
2023-01-29T15:31:25.855Z,2.30
2023-01-29T15:33:55.346Z,2.40
2023-01-29T15:36:30.854Z,2.50
2023-01-29T15:39:26.396Z,2.40
2023-01-29T15:42:11.497Z,2.30
2023-01-29T15:44:45.056Z,2.25
2023-01-29T15:47:12.734Z,2.50
2023-01-29T15:49:41.067Z,2.80
2023-01-29T15:52:29.639Z,2.95
2023-01-29T15:55:01.448Z,2.80
2023-01-29T15:57:33.537Z,3.25
2023-01-29T16:00:00.201Z,2.72
2023-01-29T16:02:35.619Z,3.28
2023-01-29T16:05:03.593Z,2.80
2023-01-29T16:07:30.511Z,3.20
2023-01-29T16:09:58.453Z,3.45
2023-01-29T16:12:25.176Z,3.50
2023-01-29T16:14:52.408Z,3.63
2023-01-29T16:17:32.442Z,3.53
2023-01-29T16:20:00.353Z,4.10
2023-01-29T16:22:32.625Z,3.92
2023-01-29T16:25:07.609Z,3.90
2023-01-29T16:27:34.907Z,3.95
2023-01-29T16:30:01.757Z,4.47
2023-01-29T16:32:30.272Z,4.65
2023-01-29T16:34:59.688Z,3.90
2023-01-29T16:37:33.404Z,4.22
2023-01-29T16:39:59.992Z,3.50
2023-01-29T16:42:27.547Z,4.70
2023-01-29T16:45:01.162Z,4.70
2023-01-29T16:47:27.569Z,4.20
2023-01-29T16:49:59.873Z,3.92
2023-01-29T16:52:34.668Z,4.53
2023-01-29T16:55:11.434Z,4.43
2023-01-29T16:57:39.858Z,3.95
2023-01-29T17:00:18.445Z,4.68
2023-01-29T17:02:44.978Z,4.07
2023-01-29T17:05:26.032Z,4.68
2023-01-29T17:07:55.462Z,4.30
2023-01-29T17:10:22.027Z,5.25
2023-01-29T17:12:56.151Z,4.00
2023-01-29T17:15:43.601Z,3.92
2023-01-29T17:18:20.144Z,3.60
2023-01-29T17:20:47.402Z,3.70
2023-01-29T17:23:14.123Z,3.58
2023-01-29T17:25:40.956Z,3.90
2023-01-29T17:28:07.711Z,4.35
2023-01-29T17:30:35.235Z,4.97
2023-01-29T17:33:01.718Z,5.32
2023-01-29T17:35:28.574Z,4.35
2023-01-29T17:37:55.056Z,4.47
2023-01-29T17:40:37.533Z,4.45
2023-01-29T17:43:03.994Z,8.02
2023-01-29T17:45:30.464Z,5.20
2023-01-29T17:47:56.946Z,9.80
2023-01-29T17:50:27.019Z,4.82
2023-01-29T17:52:53.512Z,5.60
2023-01-29T17:55:20.279Z,7.47
2023-01-29T17:57:46.894Z,6.72
2023-01-29T18:00:20.896Z,9.60
2023-01-29T18:02:47.477Z,5.40
2023-01-29T18:05:14.854Z,6.57
2023-01-29T18:07:43.436Z,6.57
2023-01-29T18:10:15.461Z,7.05
2023-01-29T18:12:41.973Z,6.85
2023-01-29T18:15:09.417Z,6.88
2023-01-29T18:17:36.191Z,7.55
2023-01-29T18:20:02.749Z,7.80
2023-01-29T18:22:29.281Z,7.13
2023-01-29T18:24:55.693Z,7.30
2023-01-29T18:27:22.131Z,5.75
2023-01-29T18:29:48.590Z,6.60
2023-01-29T18:32:15.050Z,6.53
2023-01-29T18:34:41.595Z,5.82
2023-01-29T18:37:08.069Z,5.30
2023-01-29T18:39:34.491Z,5.50
2023-01-29T18:42:00.980Z,5.78
2023-01-29T18:44:27.413Z,4.90
2023-01-29T18:46:53.880Z,6.03
2023-01-29T18:49:20.467Z,6.80
2023-01-29T18:51:46.911Z,6.03
2023-01-29T18:54:13.336Z,5.80
2023-01-29T18:57:11.614Z,5.55
2023-01-29T18:59:26.268Z,5.85
2023-01-29T19:01:52.759Z,5.45
2023-01-29T19:04:19.320Z,6.07
2023-01-29T19:06:46.923Z,6.47
2023-01-29T19:09:13.504Z,6.25
2023-01-29T19:11:42.529Z,6.25
2023-01-29T19:14:09.050Z,6.00
2023-01-29T19:16:35.469Z,5.93
2023-01-29T19:19:01.957Z,5.60
2023-01-29T19:21:28.415Z,5.60
2023-01-29T19:23:54.866Z,5.47
2023-01-29T19:26:21.776Z,6.15
2023-01-29T19:28:48.283Z,6.15
2023-01-29T19:31:14.898Z,6.18
2023-01-29T19:33:41.356Z,8.10
2023-01-29T19:36:08.224Z,7.45
2023-01-29T19:38:34.710Z,6.13
2023-01-29T19:41:01.201Z,6.30
2023-01-29T19:43:31.918Z,5.63
2023-01-29T19:46:00.330Z,5.30
2023-01-29T19:48:27.445Z,5.70
2023-01-29T19:50:59.101Z,4.93
2023-01-29T19:56:01.990Z,4.97
2023-01-29T19:58:29.003Z,5.20
2023-01-29T20:01:03.919Z,5.05
2023-01-29T20:03:31.068Z,6.22
2023-01-29T20:06:06.882Z,5.95
2023-01-29T20:08:33.992Z,6.15
2023-01-29T20:11:00.743Z,6.50
2023-01-29T20:13:27.854Z,6.22
2023-01-29T20:15:55.626Z,5.75
2023-01-29T20:18:22.170Z,5.55
2023-01-29T20:20:50.483Z,5.97
2023-01-29T20:23:31.837Z,6.70
2023-01-29T20:26:04.023Z,6.15
2023-01-29T20:28:30.628Z,6.53
2023-01-29T20:30:57.217Z,6.18
2023-01-29T20:33:24.057Z,7.35
2023-01-29T20:35:58.569Z,6.55
2023-01-29T20:38:25.603Z,6.32
2023-01-29T20:40:52.040Z,6.28
2023-01-29T20:43:18.532Z,6.35
2023-01-29T20:45:45.053Z,6.25
2023-01-29T20:48:11.549Z,6.68
2023-01-29T20:50:38.041Z,6.38
2023-01-29T20:53:04.579Z,5.50
2023-01-29T20:55:31.210Z,5.95
2023-01-29T20:58:05.474Z,5.63
2023-01-29T21:00:32.557Z,5.38
2023-01-29T21:02:59.034Z,5.55
2023-01-29T21:05:25.763Z,5.20
2023-01-29T21:07:52.190Z,4.95
2023-01-29T21:10:19.018Z,4.97
2023-01-29T21:12:45.655Z,4.53
2023-01-29T21:15:12.246Z,4.20
2023-01-29T21:17:38.713Z,3.70
2023-01-29T21:20:05.679Z,3.90
2023-01-29T21:22:32.162Z,3.95
2023-01-29T21:24:58.578Z,5.10
2023-01-29T21:27:25.537Z,4.32
2023-01-29T21:29:52.048Z,3.45
2023-01-29T21:32:18.486Z,3.95
2023-01-29T21:34:44.895Z,4.05
2023-01-29T21:37:11.356Z,4.20
2023-01-29T21:39:37.793Z,3.63
2023-01-29T21:42:04.549Z,4.07
2023-01-29T21:44:33.546Z,3.85
2023-01-29T21:47:00.430Z,3.92
2023-01-29T21:49:27.195Z,3.67
2023-01-29T21:51:53.717Z,3.50
2023-01-29T21:54:20.251Z,3.58
2023-01-29T21:56:46.693Z,4.10
2023-01-29T21:59:13.208Z,3.58
2023-01-29T22:01:39.690Z,3.90
2023-01-29T22:04:06.198Z,3.03
2023-01-29T22:06:32.686Z,4.40
2023-01-29T22:08:59.109Z,3.30
2023-01-29T22:11:25.887Z,3.55
2023-01-29T22:13:52.349Z,4.32
2023-01-29T22:16:18.786Z,3.40
2023-01-29T22:18:45.203Z,3.58
2023-01-29T22:21:11.680Z,2.75
2023-01-29T22:23:38.107Z,3.03
2023-01-29T22:26:06.720Z,2.67
2023-01-29T22:28:33.183Z,3.25
2023-01-29T22:31:03.390Z,3.13
2023-01-29T22:33:30.232Z,2.97
2023-01-29T22:35:56.956Z,3.58
2023-01-29T22:38:23.743Z,3.88
2023-01-29T22:40:54.619Z,3.20
2023-01-29T22:43:21.817Z,4.22
2023-01-29T22:45:48.395Z,2.80
2023-01-29T22:48:15.356Z,3.15
2023-01-29T22:50:41.880Z,2.75
2023-01-29T22:53:08.785Z,2.60
2023-01-29T22:55:35.226Z,3.28
2023-01-29T22:58:01.686Z,3.03
2023-01-29T23:00:28.097Z,3.33
2023-01-29T23:02:54.525Z,3.28
2023-01-29T23:05:20.959Z,3.53
2023-01-29T23:07:47.413Z,2.85
2023-01-29T23:10:14.636Z,3.65
2023-01-29T23:12:41.368Z,3.65
2023-01-29T23:15:08.053Z,4.38
2023-01-29T23:17:34.522Z,4.28
2023-01-29T23:20:00.973Z,4.85
2023-01-29T23:22:27.440Z,4.63
2023-01-29T23:24:53.870Z,4.55
2023-01-29T23:27:20.375Z,4.85
2023-01-29T23:29:48.406Z,4.40
2023-01-29T23:32:17.460Z,5.00
2023-01-29T23:34:43.921Z,4.93
2023-01-29T23:37:10.466Z,4.88
2023-01-29T23:39:36.951Z,6.10
2023-01-29T23:42:03.745Z,5.40
2023-01-29T23:44:30.183Z,6.20
2023-01-29T23:46:56.721Z,5.82
2023-01-29T23:49:23.274Z,5.90
2023-01-29T23:51:50.792Z,6.20
2023-01-29T23:54:17.815Z,5.53
2023-01-29T23:56:44.814Z,6.50
2023-01-29T23:59:11.379Z,6.85
